sensor_id;sensor_type;location;lat;lon;timestamp;temperature;humidity
23532;DHT22;11943;52.270;20.978;2023-05-07T00:02:02;6.60;99.90
23532;DHT22;11943;52.270;20.978;2023-05-07T00:04:29;6.60;99.90
23532;DHT22;11943;52.270;20.978;2023-05-07T00:07:01;6.70;99.90
23532;DHT22;11943;52.270;20.978;2023-05-07T00:09:26;6.70;99.90
23532;DHT22;11943;52.270;20.978;2023-05-07T00:11:52;6.60;99.90
23532;DHT22;11943;52.270;20.978;2023-05-07T00:14:36;6.60;99.90
23532;DHT22;11943;52.270;20.978;2023-05-07T00:17:20;6.60;99.90
23532;DHT22;11943;52.270;20.978;2023-05-07T00:19:46;6.70;99.90
23532;DHT22;11943;52.270;20.978;2023-05-07T00:22:12;6.60;99.90
23532;DHT22;11943;52.270;20.978;2023-05-07T00:24:37;6.50;99.90
23532;DHT22;11943;52.270;20.978;2023-05-07T00:27:03;6.50;99.90
23532;DHT22;11943;52.270;20.978;2023-05-07T00:29:28;6.50;99.90
23532;DHT22;11943;52.270;20.978;2023-05-07T00:31:54;6.50;99.90
23532;DHT22;11943;52.270;20.978;2023-05-07T00:34:20;6.50;99.90
23532;DHT22;11943;52.270;20.978;2023-05-07T00:36:45;6.50;99.90
23532;DHT22;11943;52.270;20.978;2023-05-07T00:39:11;6.50;99.90
23532;DHT22;11943;52.270;20.978;2023-05-07T00:41:37;6.40;99.90
23532;DHT22;11943;52.270;20.978;2023-05-07T00:44:02;6.40;99.90
23532;DHT22;11943;52.270;20.978;2023-05-07T00:46:28;6.50;99.90
23532;DHT22;11943;52.270;20.978;2023-05-07T00:48:55;6.50;99.90
23532;DHT22;11943;52.270;20.978;2023-05-07T00:51:21;6.50;99.90
23532;DHT22;11943;52.270;20.978;2023-05-07T00:53:47;6.40;99.90
23532;DHT22;11943;52.270;20.978;2023-05-07T00:56:13;6.40;99.90
23532;DHT22;11943;52.270;20.978;2023-05-07T00:58:40;6.40;99.90
23532;DHT22;11943;52.270;20.978;2023-05-07T01:01:06;6.50;99.90
23532;DHT22;11943;52.270;20.978;2023-05-07T01:03:31;6.50;99.90
23532;DHT22;11943;52.270;20.978;2023-05-07T01:05:57;6.50;99.90
23532;DHT22;11943;52.270;20.978;2023-05-07T01:08:24;6.40;99.90
23532;DHT22;11943;52.270;20.978;2023-05-07T01:10:52;6.40;99.90
23532;DHT22;11943;52.270;20.978;2023-05-07T01:13:19;6.40;99.90
23532;DHT22;11943;52.270;20.978;2023-05-07T01:15:44;6.40;99.90
23532;DHT22;11943;52.270;20.978;2023-05-07T01:18:10;6.40;99.90
23532;DHT22;11943;52.270;20.978;2023-05-07T01:20:36;6.30;99.90
23532;DHT22;11943;52.270;20.978;2023-05-07T01:23:03;6.20;99.90
23532;DHT22;11943;52.270;20.978;2023-05-07T01:25:29;6.20;99.90
23532;DHT22;11943;52.270;20.978;2023-05-07T01:27:55;6.30;99.90
23532;DHT22;11943;52.270;20.978;2023-05-07T01:30:22;6.20;99.90
23532;DHT22;11943;52.270;20.978;2023-05-07T01:33:09;6.30;99.90
23532;DHT22;11943;52.270;20.978;2023-05-07T01:35:39;6.20;99.90
23532;DHT22;11943;52.270;20.978;2023-05-07T01:38:06;6.30;99.90
23532;DHT22;11943;52.270;20.978;2023-05-07T01:40:33;6.30;99.90
23532;DHT22;11943;52.270;20.978;2023-05-07T01:43:00;6.30;99.90
23532;DHT22;11943;52.270;20.978;2023-05-07T01:45:27;6.30;99.90
23532;DHT22;11943;52.270;20.978;2023-05-07T01:47:53;6.20;99.90
23532;DHT22;11943;52.270;20.978;2023-05-07T01:50:20;6.20;99.90
23532;DHT22;11943;52.270;20.978;2023-05-07T01:52:47;6.30;99.90
23532;DHT22;11943;52.270;20.978;2023-05-07T01:55:12;6.30;99.90
23532;DHT22;11943;52.270;20.978;2023-05-07T01:57:38;6.20;99.90
23532;DHT22;11943;52.270;20.978;2023-05-07T02:00:04;6.30;99.90
23532;DHT22;11943;52.270;20.978;2023-05-07T02:02:30;6.30;99.90
23532;DHT22;11943;52.270;20.978;2023-05-07T02:04:56;6.20;99.90
23532;DHT22;11943;52.270;20.978;2023-05-07T02:07:22;6.20;99.90
23532;DHT22;11943;52.270;20.978;2023-05-07T02:09:48;6.20;99.90
23532;DHT22;11943;52.270;20.978;2023-05-07T02:12:13;6.20;99.90
23532;DHT22;11943;52.270;20.978;2023-05-07T02:14:39;6.20;99.90
23532;DHT22;11943;52.270;20.978;2023-05-07T02:17:04;6.20;99.90
23532;DHT22;11943;52.270;20.978;2023-05-07T02:19:30;6.20;99.90
23532;DHT22;11943;52.270;20.978;2023-05-07T02:21:56;6.10;99.90
23532;DHT22;11943;52.270;20.978;2023-05-07T02:24:21;6.20;99.90
23532;DHT22;11943;52.270;20.978;2023-05-07T02:26:47;6.10;99.90
23532;DHT22;11943;52.270;20.978;2023-05-07T02:29:13;6.10;99.90
23532;DHT22;11943;52.270;20.978;2023-05-07T02:31:38;6.10;99.90
23532;DHT22;11943;52.270;20.978;2023-05-07T02:34:04;6.00;99.90
23532;DHT22;11943;52.270;20.978;2023-05-07T02:36:30;6.00;99.90
23532;DHT22;11943;52.270;20.978;2023-05-07T02:38:55;6.00;99.90
23532;DHT22;11943;52.270;20.978;2023-05-07T02:41:21;6.00;99.90
23532;DHT22;11943;52.270;20.978;2023-05-07T02:43:47;6.00;99.90
23532;DHT22;11943;52.270;20.978;2023-05-07T02:46:12;6.10;99.90
23532;DHT22;11943;52.270;20.978;2023-05-07T02:48:38;6.00;99.90
23532;DHT22;11943;52.270;20.978;2023-05-07T02:51:04;6.10;99.90
23532;DHT22;11943;52.270;20.978;2023-05-07T02:53:31;6.00;99.90
23532;DHT22;11943;52.270;20.978;2023-05-07T02:55:59;6.00;99.90
23532;DHT22;11943;52.270;20.978;2023-05-07T02:58:25;6.00;99.90
23532;DHT22;11943;52.270;20.978;2023-05-07T03:00:51;6.10;99.90
23532;DHT22;11943;52.270;20.978;2023-05-07T03:03:17;6.00;99.90
23532;DHT22;11943;52.270;20.978;2023-05-07T03:05:43;6.00;99.90
23532;DHT22;11943;52.270;20.978;2023-05-07T03:08:09;6.10;99.90
23532;DHT22;11943;52.270;20.978;2023-05-07T03:10:36;6.00;99.90
23532;DHT22;11943;52.270;20.978;2023-05-07T03:13:02;6.10;99.90
23532;DHT22;11943;52.270;20.978;2023-05-07T03:15:28;6.10;99.90
23532;DHT22;11943;52.270;20.978;2023-05-07T03:17:54;6.10;99.90
23532;DHT22;11943;52.270;20.978;2023-05-07T03:20:20;6.00;99.90
23532;DHT22;11943;52.270;20.978;2023-05-07T03:22:45;6.00;99.90
23532;DHT22;11943;52.270;20.978;2023-05-07T03:25:11;6.10;99.90
23532;DHT22;11943;52.270;20.978;2023-05-07T03:27:37;6.00;99.90
23532;DHT22;11943;52.270;20.978;2023-05-07T03:30:03;6.00;99.90
23532;DHT22;11943;52.270;20.978;2023-05-07T03:32:29;6.00;99.90
23532;DHT22;11943;52.270;20.978;2023-05-07T03:34:55;6.10;99.90
23532;DHT22;11943;52.270;20.978;2023-05-07T03:37:21;6.10;99.90
23532;DHT22;11943;52.270;20.978;2023-05-07T03:39:47;6.20;99.90
23532;DHT22;11943;52.270;20.978;2023-05-07T03:42:13;6.10;99.90
23532;DHT22;11943;52.270;20.978;2023-05-07T03:44:38;6.10;99.90
23532;DHT22;11943;52.270;20.978;2023-05-07T03:47:04;6.00;99.90
23532;DHT22;11943;52.270;20.978;2023-05-07T03:49:30;6.00;99.90
23532;DHT22;11943;52.270;20.978;2023-05-07T03:51:55;6.10;99.90
23532;DHT22;11943;52.270;20.978;2023-05-07T03:54:21;6.10;99.90
23532;DHT22;11943;52.270;20.978;2023-05-07T03:56:47;6.10;99.90
23532;DHT22;11943;52.270;20.978;2023-05-07T03:59:13;6.10;99.90
23532;DHT22;11943;52.270;20.978;2023-05-07T04:01:39;6.10;99.90
23532;DHT22;11943;52.270;20.978;2023-05-07T04:04:05;6.10;99.90
23532;DHT22;11943;52.270;20.978;2023-05-07T04:06:30;6.10;99.90
23532;DHT22;11943;52.270;20.978;2023-05-07T04:08:57;6.10;99.90
23532;DHT22;11943;52.270;20.978;2023-05-07T04:11:22;6.10;99.90
23532;DHT22;11943;52.270;20.978;2023-05-07T04:13:48;6.20;99.90
23532;DHT22;11943;52.270;20.978;2023-05-07T04:16:14;6.20;99.90
23532;DHT22;11943;52.270;20.978;2023-05-07T04:18:40;6.30;99.90
23532;DHT22;11943;52.270;20.978;2023-05-07T04:21:14;6.30;99.90
23532;DHT22;11943;52.270;20.978;2023-05-07T04:23:40;6.30;99.90
23532;DHT22;11943;52.270;20.978;2023-05-07T04:26:05;6.30;99.90
23532;DHT22;11943;52.270;20.978;2023-05-07T04:28:31;6.30;99.90
23532;DHT22;11943;52.270;20.978;2023-05-07T04:30:57;6.30;99.90
23532;DHT22;11943;52.270;20.978;2023-05-07T04:33:23;6.30;99.90
23532;DHT22;11943;52.270;20.978;2023-05-07T04:35:48;6.30;99.90
23532;DHT22;11943;52.270;20.978;2023-05-07T04:38:14;6.30;99.90
23532;DHT22;11943;52.270;20.978;2023-05-07T04:40:40;6.20;99.90
23532;DHT22;11943;52.270;20.978;2023-05-07T04:43:06;6.20;99.90
23532;DHT22;11943;52.270;20.978;2023-05-07T04:45:34;6.20;99.90
23532;DHT22;11943;52.270;20.978;2023-05-07T04:48:00;6.30;99.90
23532;DHT22;11943;52.270;20.978;2023-05-07T04:50:26;6.30;99.90
23532;DHT22;11943;52.270;20.978;2023-05-07T04:52:52;6.40;99.90
23532;DHT22;11943;52.270;20.978;2023-05-07T04:55:17;6.40;99.90
23532;DHT22;11943;52.270;20.978;2023-05-07T04:57:43;6.40;99.90
23532;DHT22;11943;52.270;20.978;2023-05-07T05:00:09;6.50;99.90
23532;DHT22;11943;52.270;20.978;2023-05-07T05:02:35;6.50;99.90
23532;DHT22;11943;52.270;20.978;2023-05-07T05:05:01;6.50;99.90
23532;DHT22;11943;52.270;20.978;2023-05-07T05:07:28;6.50;99.90
23532;DHT22;11943;52.270;20.978;2023-05-07T05:09:54;6.50;99.90
23532;DHT22;11943;52.270;20.978;2023-05-07T05:12:20;6.60;99.90
23532;DHT22;11943;52.270;20.978;2023-05-07T05:14:46;6.70;99.90
23532;DHT22;11943;52.270;20.978;2023-05-07T05:17:12;6.80;99.90
23532;DHT22;11943;52.270;20.978;2023-05-07T05:19:38;6.80;99.90
23532;DHT22;11943;52.270;20.978;2023-05-07T05:22:03;6.90;99.90
23532;DHT22;11943;52.270;20.978;2023-05-07T05:24:30;6.90;99.90
23532;DHT22;11943;52.270;20.978;2023-05-07T05:26:56;7.00;99.90
23532;DHT22;11943;52.270;20.978;2023-05-07T05:29:21;7.10;99.90
23532;DHT22;11943;52.270;20.978;2023-05-07T05:31:47;7.20;99.90
23532;DHT22;11943;52.270;20.978;2023-05-07T05:34:13;7.10;99.90
23532;DHT22;11943;52.270;20.978;2023-05-07T05:36:39;7.10;99.90
23532;DHT22;11943;52.270;20.978;2023-05-07T05:39:04;7.30;99.90
23532;DHT22;11943;52.270;20.978;2023-05-07T05:41:31;7.30;99.90
23532;DHT22;11943;52.270;20.978;2023-05-07T05:43:56;7.20;99.90
23532;DHT22;11943;52.270;20.978;2023-05-07T05:46:22;7.30;99.90
23532;DHT22;11943;52.270;20.978;2023-05-07T05:48:48;7.20;99.90
23532;DHT22;11943;52.270;20.978;2023-05-07T05:51:13;7.20;99.90
23532;DHT22;11943;52.270;20.978;2023-05-07T05:53:39;7.10;99.90
23532;DHT22;11943;52.270;20.978;2023-05-07T05:56:05;7.20;99.90
23532;DHT22;11943;52.270;20.978;2023-05-07T05:58:31;7.20;99.90
23532;DHT22;11943;52.270;20.978;2023-05-07T06:00:56;7.10;99.90
23532;DHT22;11943;52.270;20.978;2023-05-07T06:03:23;7.20;99.90
23532;DHT22;11943;52.270;20.978;2023-05-07T06:05:49;7.30;99.90
23532;DHT22;11943;52.270;20.978;2023-05-07T06:08:14;7.30;99.90
23532;DHT22;11943;52.270;20.978;2023-05-07T06:10:40;7.30;99.90
23532;DHT22;11943;52.270;20.978;2023-05-07T06:13:06;7.40;99.90
23532;DHT22;11943;52.270;20.978;2023-05-07T06:15:32;7.40;99.90
23532;DHT22;11943;52.270;20.978;2023-05-07T06:17:57;7.40;99.90
23532;DHT22;11943;52.270;20.978;2023-05-07T06:20:23;7.40;99.90
23532;DHT22;11943;52.270;20.978;2023-05-07T06:22:49;7.50;99.90
23532;DHT22;11943;52.270;20.978;2023-05-07T06:25:15;7.70;99.90
23532;DHT22;11943;52.270;20.978;2023-05-07T06:27:40;7.80;99.90
23532;DHT22;11943;52.270;20.978;2023-05-07T06:30:07;7.80;99.90
23532;DHT22;11943;52.270;20.978;2023-05-07T06:32:33;7.80;99.90
23532;DHT22;11943;52.270;20.978;2023-05-07T06:34:58;7.80;99.90
23532;DHT22;11943;52.270;20.978;2023-05-07T06:37:25;7.80;99.90
23532;DHT22;11943;52.270;20.978;2023-05-07T06:39:50;7.70;99.90
23532;DHT22;11943;52.270;20.978;2023-05-07T06:42:16;7.60;99.90
23532;DHT22;11943;52.270;20.978;2023-05-07T06:44:42;7.60;99.90
23532;DHT22;11943;52.270;20.978;2023-05-07T06:47:07;7.70;99.90
23532;DHT22;11943;52.270;20.978;2023-05-07T06:49:33;7.70;99.90
23532;DHT22;11943;52.270;20.978;2023-05-07T06:51:59;7.60;99.90
23532;DHT22;11943;52.270;20.978;2023-05-07T06:54:24;7.60;99.90
23532;DHT22;11943;52.270;20.978;2023-05-07T06:56:50;7.60;99.90
23532;DHT22;11943;52.270;20.978;2023-05-07T06:59:16;7.70;99.90
23532;DHT22;11943;52.270;20.978;2023-05-07T07:01:41;7.90;99.90
23532;DHT22;11943;52.270;20.978;2023-05-07T07:04:07;7.80;99.90
23532;DHT22;11943;52.270;20.978;2023-05-07T07:06:32;8.10;99.90
23532;DHT22;11943;52.270;20.978;2023-05-07T07:08:59;8.20;99.90
23532;DHT22;11943;52.270;20.978;2023-05-07T07:11:25;8.30;99.90
23532;DHT22;11943;52.270;20.978;2023-05-07T07:13:51;8.40;99.90
23532;DHT22;11943;52.270;20.978;2023-05-07T07:16:17;8.30;99.90
23532;DHT22;11943;52.270;20.978;2023-05-07T07:18:42;8.40;99.90
23532;DHT22;11943;52.270;20.978;2023-05-07T07:21:08;8.60;99.90
23532;DHT22;11943;52.270;20.978;2023-05-07T07:23:33;8.80;99.90
23532;DHT22;11943;52.270;20.978;2023-05-07T07:25:59;9.10;99.90
23532;DHT22;11943;52.270;20.978;2023-05-07T07:28:25;8.90;99.90
23532;DHT22;11943;52.270;20.978;2023-05-07T07:30:51;8.70;99.90
23532;DHT22;11943;52.270;20.978;2023-05-07T07:33:16;8.90;99.90
23532;DHT22;11943;52.270;20.978;2023-05-07T07:35:42;9.00;99.90
23532;DHT22;11943;52.270;20.978;2023-05-07T07:38:08;8.80;99.90
23532;DHT22;11943;52.270;20.978;2023-05-07T07:40:36;8.60;99.90
23532;DHT22;11943;52.270;20.978;2023-05-07T07:43:02;8.70;99.90
23532;DHT22;11943;52.270;20.978;2023-05-07T07:45:27;8.60;99.90
23532;DHT22;11943;52.270;20.978;2023-05-07T07:47:53;8.80;99.90
23532;DHT22;11943;52.270;20.978;2023-05-07T07:50:20;8.70;99.90
23532;DHT22;11943;52.270;20.978;2023-05-07T07:52:46;8.80;99.90
23532;DHT22;11943;52.270;20.978;2023-05-07T07:55:12;8.80;99.90
23532;DHT22;11943;52.270;20.978;2023-05-07T07:57:37;8.80;99.90
23532;DHT22;11943;52.270;20.978;2023-05-07T08:00:04;8.80;99.90
23532;DHT22;11943;52.270;20.978;2023-05-07T08:02:31;8.80;99.90
23532;DHT22;11943;52.270;20.978;2023-05-07T08:04:56;8.80;99.90
23532;DHT22;11943;52.270;20.978;2023-05-07T08:07:22;8.90;99.90
23532;DHT22;11943;52.270;20.978;2023-05-07T08:09:48;9.00;99.90
23532;DHT22;11943;52.270;20.978;2023-05-07T08:12:14;9.20;99.90
23532;DHT22;11943;52.270;20.978;2023-05-07T08:14:40;8.90;99.90
23532;DHT22;11943;52.270;20.978;2023-05-07T08:17:06;8.90;99.90
23532;DHT22;11943;52.270;20.978;2023-05-07T08:19:32;8.80;99.90
23532;DHT22;11943;52.270;20.978;2023-05-07T08:21:57;9.00;99.90
23532;DHT22;11943;52.270;20.978;2023-05-07T08:24:23;9.30;99.90
23532;DHT22;11943;52.270;20.978;2023-05-07T08:26:49;9.60;99.90
23532;DHT22;11943;52.270;20.978;2023-05-07T08:29:15;9.50;99.90
23532;DHT22;11943;52.270;20.978;2023-05-07T08:31:41;9.70;99.90
23532;DHT22;11943;52.270;20.978;2023-05-07T08:34:06;9.60;99.90
23532;DHT22;11943;52.270;20.978;2023-05-07T08:36:32;9.60;99.90
23532;DHT22;11943;52.270;20.978;2023-05-07T08:38:58;9.90;99.90
23532;DHT22;11943;52.270;20.978;2023-05-07T08:41:24;10.00;99.90
23532;DHT22;11943;52.270;20.978;2023-05-07T08:43:50;10.00;99.90
23532;DHT22;11943;52.270;20.978;2023-05-07T08:46:22;9.70;99.90
23532;DHT22;11943;52.270;20.978;2023-05-07T08:48:49;9.70;99.90
23532;DHT22;11943;52.270;20.978;2023-05-07T08:51:19;9.70;99.90
23532;DHT22;11943;52.270;20.978;2023-05-07T08:53:46;9.80;99.90
23532;DHT22;11943;52.270;20.978;2023-05-07T08:56:14;10.10;99.90
23532;DHT22;11943;52.270;20.978;2023-05-07T08:58:41;10.10;99.90
23532;DHT22;11943;52.270;20.978;2023-05-07T09:01:09;10.40;99.90
23532;DHT22;11943;52.270;20.978;2023-05-07T09:03:37;10.60;99.90
23532;DHT22;11943;52.270;20.978;2023-05-07T09:06:03;10.70;99.90
23532;DHT22;11943;52.270;20.978;2023-05-07T09:08:29;10.30;99.90
23532;DHT22;11943;52.270;20.978;2023-05-07T09:10:55;10.20;99.90
23532;DHT22;11943;52.270;20.978;2023-05-07T09:13:21;10.20;99.90
23532;DHT22;11943;52.270;20.978;2023-05-07T09:15:46;10.30;99.90
23532;DHT22;11943;52.270;20.978;2023-05-07T09:18:12;10.40;99.90
23532;DHT22;11943;52.270;20.978;2023-05-07T09:20:41;10.50;99.90
23532;DHT22;11943;52.270;20.978;2023-05-07T09:23:08;10.40;99.90
23532;DHT22;11943;52.270;20.978;2023-05-07T09:25:34;10.40;99.90
23532;DHT22;11943;52.270;20.978;2023-05-07T09:28:01;10.50;99.70
23532;DHT22;11943;52.270;20.978;2023-05-07T09:30:34;10.70;96.60
23532;DHT22;11943;52.270;20.978;2023-05-07T09:33:02;11.20;97.50
23532;DHT22;11943;52.270;20.978;2023-05-07T09:35:29;11.30;94.50
23532;DHT22;11943;52.270;20.978;2023-05-07T09:37:56;10.90;94.00
23532;DHT22;11943;52.270;20.978;2023-05-07T09:40:24;10.70;96.70
23532;DHT22;11943;52.270;20.978;2023-05-07T09:42:51;10.60;97.80
23532;DHT22;11943;52.270;20.978;2023-05-07T09:45:22;10.60;98.40
23532;DHT22;11943;52.270;20.978;2023-05-07T09:47:48;10.70;98.10
23532;DHT22;11943;52.270;20.978;2023-05-07T09:50:16;10.70;96.00
23532;DHT22;11943;52.270;20.978;2023-05-07T09:52:42;11.10;97.90
23532;DHT22;11943;52.270;20.978;2023-05-07T09:55:09;11.70;96.80
23532;DHT22;11943;52.270;20.978;2023-05-07T09:57:36;11.90;93.60
23532;DHT22;11943;52.270;20.978;2023-05-07T10:00:03;11.70;91.50
23532;DHT22;11943;52.270;20.978;2023-05-07T10:02:35;11.40;92.40
23532;DHT22;11943;52.270;20.978;2023-05-07T10:05:02;11.10;91.40
23532;DHT22;11943;52.270;20.978;2023-05-07T10:07:28;11.00;90.20
23532;DHT22;11943;52.270;20.978;2023-05-07T10:09:55;11.30;90.50
23532;DHT22;11943;52.270;20.978;2023-05-07T10:12:21;11.70;90.50
23532;DHT22;11943;52.270;20.978;2023-05-07T10:14:47;11.80;87.70
23532;DHT22;11943;52.270;20.978;2023-05-07T10:17:16;11.60;85.20
23532;DHT22;11943;52.270;20.978;2023-05-07T10:19:46;11.30;87.90
23532;DHT22;11943;52.270;20.978;2023-05-07T10:22:13;11.20;87.70
23532;DHT22;11943;52.270;20.978;2023-05-07T10:24:41;10.80;88.10
23532;DHT22;11943;52.270;20.978;2023-05-07T10:27:09;11.00;90.40
23532;DHT22;11943;52.270;20.978;2023-05-07T10:34:56;11.60;86.60
23532;DHT22;11943;52.270;20.978;2023-05-07T10:37:25;11.60;85.00
23532;DHT22;11943;52.270;20.978;2023-05-07T10:39:51;11.40;85.60
23532;DHT22;11943;52.270;20.978;2023-05-07T10:42:17;11.20;86.50
23532;DHT22;11943;52.270;20.978;2023-05-07T10:44:43;11.10;88.00
23532;DHT22;11943;52.270;20.978;2023-05-07T10:47:10;11.10;89.20
23532;DHT22;11943;52.270;20.978;2023-05-07T10:52:19;11.30;91.60
23532;DHT22;11943;52.270;20.978;2023-05-07T10:54:45;11.20;90.20
23532;DHT22;11943;52.270;20.978;2023-05-07T11:00:01;11.00;90.30
23532;DHT22;11943;52.270;20.978;2023-05-07T11:05:24;11.50;88.60
23532;DHT22;11943;52.270;20.978;2023-05-07T11:08:03;11.70;88.40
23532;DHT22;11943;52.270;20.978;2023-05-07T11:13:17;11.20;86.10
23532;DHT22;11943;52.270;20.978;2023-05-07T11:15:45;11.00;86.70
23532;DHT22;11943;52.270;20.978;2023-05-07T11:18:12;11.10;88.90
23532;DHT22;11943;52.270;20.978;2023-05-07T11:20:51;11.00;88.60
23532;DHT22;11943;52.270;20.978;2023-05-07T11:26:14;11.10;89.90
23532;DHT22;11943;52.270;20.978;2023-05-07T11:28:43;11.20;88.20
23532;DHT22;11943;52.270;20.978;2023-05-07T11:31:10;11.30;87.10
23532;DHT22;11943;52.270;20.978;2023-05-07T11:33:38;11.80;89.90
23532;DHT22;11943;52.270;20.978;2023-05-07T11:36:05;12.20;84.60
23532;DHT22;11943;52.270;20.978;2023-05-07T11:38:37;12.30;84.20
23532;DHT22;11943;52.270;20.978;2023-05-07T11:41:04;11.90;83.80
23532;DHT22;11943;52.270;20.978;2023-05-07T11:43:31;11.80;84.60
23532;DHT22;11943;52.270;20.978;2023-05-07T11:46:11;11.50;85.80
23532;DHT22;11943;52.270;20.978;2023-05-07T11:48:37;11.40;86.80
23532;DHT22;11943;52.270;20.978;2023-05-07T11:51:05;11.20;91.30
23532;DHT22;11943;52.270;20.978;2023-05-07T11:53:39;11.30;85.10
23532;DHT22;11943;52.270;20.978;2023-05-07T11:56:09;11.40;86.20
23532;DHT22;11943;52.270;20.978;2023-05-07T11:58:35;11.60;87.00
23532;DHT22;11943;52.270;20.978;2023-05-07T12:01:02;12.10;84.70
23532;DHT22;11943;52.270;20.978;2023-05-07T12:03:27;12.30;84.50
23532;DHT22;11943;52.270;20.978;2023-05-07T12:05:53;12.30;81.80
23532;DHT22;11943;52.270;20.978;2023-05-07T12:08:19;12.60;81.60
23532;DHT22;11943;52.270;20.978;2023-05-07T12:10:47;12.50;79.20
23532;DHT22;11943;52.270;20.978;2023-05-07T12:13:21;12.40;80.60
23532;DHT22;11943;52.270;20.978;2023-05-07T12:15:54;12.30;81.00
23532;DHT22;11943;52.270;20.978;2023-05-07T12:18:21;12.20;81.60
23532;DHT22;11943;52.270;20.978;2023-05-07T12:20:47;12.20;81.20
23532;DHT22;11943;52.270;20.978;2023-05-07T12:23:14;12.20;81.20
23532;DHT22;11943;52.270;20.978;2023-05-07T12:25:41;12.20;80.30
23532;DHT22;11943;52.270;20.978;2023-05-07T12:28:16;12.40;80.60
23532;DHT22;11943;52.270;20.978;2023-05-07T12:30:48;12.70;80.90
23532;DHT22;11943;52.270;20.978;2023-05-07T12:33:23;12.70;78.50
23532;DHT22;11943;52.270;20.978;2023-05-07T12:35:49;12.80;80.60
23532;DHT22;11943;52.270;20.978;2023-05-07T12:38:16;12.50;77.90
23532;DHT22;11943;52.270;20.978;2023-05-07T12:40:46;12.20;78.70
23532;DHT22;11943;52.270;20.978;2023-05-07T12:43:26;12.20;80.20
23532;DHT22;11943;52.270;20.978;2023-05-07T12:45:54;12.30;80.10
23532;DHT22;11943;52.270;20.978;2023-05-07T12:48:21;12.50;80.90
23532;DHT22;11943;52.270;20.978;2023-05-07T12:51:05;12.60;78.40
23532;DHT22;11943;52.270;20.978;2023-05-07T12:53:32;12.60;79.70
23532;DHT22;11943;52.270;20.978;2023-05-07T12:55:58;12.90;79.90
23532;DHT22;11943;52.270;20.978;2023-05-07T12:58:29;13.00;78.50
23532;DHT22;11943;52.270;20.978;2023-05-07T13:00:56;12.90;77.30
23532;DHT22;11943;52.270;20.978;2023-05-07T13:03:26;13.00;76.70
23532;DHT22;11943;52.270;20.978;2023-05-07T13:05:52;12.90;76.50
23532;DHT22;11943;52.270;20.978;2023-05-07T13:08:35;13.10;76.80
23532;DHT22;11943;52.270;20.978;2023-05-07T13:11:03;13.00;75.10
23532;DHT22;11943;52.270;20.978;2023-05-07T13:13:33;13.00;77.30
23532;DHT22;11943;52.270;20.978;2023-05-07T13:15:59;13.00;75.30
23532;DHT22;11943;52.270;20.978;2023-05-07T13:18:26;12.80;74.10
23532;DHT22;11943;52.270;20.978;2023-05-07T13:20:53;12.90;74.80
23532;DHT22;11943;52.270;20.978;2023-05-07T13:23:19;13.20;74.20
23532;DHT22;11943;52.270;20.978;2023-05-07T13:25:44;13.40;74.40
23532;DHT22;11943;52.270;20.978;2023-05-07T13:28:10;13.70;75.50
23532;DHT22;11943;52.270;20.978;2023-05-07T13:30:36;13.60;71.80
23532;DHT22;11943;52.270;20.978;2023-05-07T13:33:02;13.60;75.20
23532;DHT22;11943;52.270;20.978;2023-05-07T13:35:27;13.30;72.00
23532;DHT22;11943;52.270;20.978;2023-05-07T13:37:53;13.20;73.10
23532;DHT22;11943;52.270;20.978;2023-05-07T13:40:20;13.40;70.90
23532;DHT22;11943;52.270;20.978;2023-05-07T13:42:46;13.70;72.60
23532;DHT22;11943;52.270;20.978;2023-05-07T13:45:12;13.50;71.20
23532;DHT22;11943;52.270;20.978;2023-05-07T13:47:40;13.40;71.00
23532;DHT22;11943;52.270;20.978;2023-05-07T13:50:07;13.50;70.70
23532;DHT22;11943;52.270;20.978;2023-05-07T13:52:33;13.80;71.20
23532;DHT22;11943;52.270;20.978;2023-05-07T13:54:59;13.80;70.40
23532;DHT22;11943;52.270;20.978;2023-05-07T13:57:24;13.70;70.40
23532;DHT22;11943;52.270;20.978;2023-05-07T13:59:50;13.40;70.50
23532;DHT22;11943;52.270;20.978;2023-05-07T14:02:16;13.30;69.40
23532;DHT22;11943;52.270;20.978;2023-05-07T14:04:41;13.40;70.50
23532;DHT22;11943;52.270;20.978;2023-05-07T14:07:07;13.60;70.50
23532;DHT22;11943;52.270;20.978;2023-05-07T14:09:33;13.60;69.70
23532;DHT22;11943;52.270;20.978;2023-05-07T14:11:58;13.50;68.30
23532;DHT22;11943;52.270;20.978;2023-05-07T14:14:24;13.60;69.90
23532;DHT22;11943;52.270;20.978;2023-05-07T14:16:50;13.80;71.90
23532;DHT22;11943;52.270;20.978;2023-05-07T14:19:16;13.70;68.50
23532;DHT22;11943;52.270;20.978;2023-05-07T14:21:41;13.50;69.80
23532;DHT22;11943;52.270;20.978;2023-05-07T14:24:07;13.90;69.20
23532;DHT22;11943;52.270;20.978;2023-05-07T14:26:36;13.50;66.50
23532;DHT22;11943;52.270;20.978;2023-05-07T14:29:02;13.50;69.50
23532;DHT22;11943;52.270;20.978;2023-05-07T14:31:27;13.50;67.20
23532;DHT22;11943;52.270;20.978;2023-05-07T14:33:54;13.80;68.50
23532;DHT22;11943;52.270;20.978;2023-05-07T14:36:19;13.50;67.60
23532;DHT22;11943;52.270;20.978;2023-05-07T14:38:47;13.60;69.50
23532;DHT22;11943;52.270;20.978;2023-05-07T14:41:12;13.50;69.00
23532;DHT22;11943;52.270;20.978;2023-05-07T14:43:38;13.60;68.60
23532;DHT22;11943;52.270;20.978;2023-05-07T14:46:04;13.30;67.80
23532;DHT22;11943;52.270;20.978;2023-05-07T14:48:29;13.10;69.30
23532;DHT22;11943;52.270;20.978;2023-05-07T14:50:55;13.40;71.30
23532;DHT22;11943;52.270;20.978;2023-05-07T14:53:22;13.50;70.40
23532;DHT22;11943;52.270;20.978;2023-05-07T14:55:48;13.20;69.30
23532;DHT22;11943;52.270;20.978;2023-05-07T14:58:13;13.00;70.70
23532;DHT22;11943;52.270;20.978;2023-05-07T15:00:39;13.10;71.00
23532;DHT22;11943;52.270;20.978;2023-05-07T15:03:07;13.20;69.90
23532;DHT22;11943;52.270;20.978;2023-05-07T15:05:33;13.20;70.40
23532;DHT22;11943;52.270;20.978;2023-05-07T15:07:59;13.30;70.20
23532;DHT22;11943;52.270;20.978;2023-05-07T15:10:25;13.40;70.40
23532;DHT22;11943;52.270;20.978;2023-05-07T15:12:51;13.40;70.10
23532;DHT22;11943;52.270;20.978;2023-05-07T15:15:16;13.40;70.10
23532;DHT22;11943;52.270;20.978;2023-05-07T15:17:42;13.40;69.80
23532;DHT22;11943;52.270;20.978;2023-05-07T15:20:08;13.40;68.30
23532;DHT22;11943;52.270;20.978;2023-05-07T15:22:33;13.40;69.20
23532;DHT22;11943;52.270;20.978;2023-05-07T15:25:01;13.30;68.30
23532;DHT22;11943;52.270;20.978;2023-05-07T15:27:27;13.50;69.20
23532;DHT22;11943;52.270;20.978;2023-05-07T15:29:52;13.40;68.70
23532;DHT22;11943;52.270;20.978;2023-05-07T15:32:18;13.30;69.10
23532;DHT22;11943;52.270;20.978;2023-05-07T15:34:44;13.20;68.10
23532;DHT22;11943;52.270;20.978;2023-05-07T15:37:10;13.30;68.60
23532;DHT22;11943;52.270;20.978;2023-05-07T15:39:35;13.20;68.30
23532;DHT22;11943;52.270;20.978;2023-05-07T15:42:01;13.30;68.10